sensor_id;sensor_type;location;lat;lon;timestamp;P1;durP1;ratioP1;P2;durP2;ratioP2
6163;SDS011;3114;48.362;10.994;2022-12-10T00:02:10;33.50;;;16.87;;
6163;SDS011;3114;48.362;10.994;2022-12-10T00:04:36;40.23;;;17.67;;
6163;SDS011;3114;48.362;10.994;2022-12-10T00:07:05;36.20;;;16.93;;
6163;SDS011;3114;48.362;10.994;2022-12-10T00:09:31;38.17;;;17.50;;
6163;SDS011;3114;48.362;10.994;2022-12-10T00:11:58;34.00;;;17.37;;
6163;SDS011;3114;48.362;10.994;2022-12-10T00:14:25;37.40;;;16.93;;
6163;SDS011;3114;48.362;10.994;2022-12-10T00:16:52;39.07;;;17.57;;
6163;SDS011;3114;48.362;10.994;2022-12-10T00:19:19;34.07;;;16.63;;
6163;SDS011;3114;48.362;10.994;2022-12-10T00:21:46;33.83;;;16.93;;
6163;SDS011;3114;48.362;10.994;2022-12-10T00:24:14;33.37;;;17.27;;
6163;SDS011;3114;48.362;10.994;2022-12-10T00:26:41;31.03;;;16.13;;
6163;SDS011;3114;48.362;10.994;2022-12-10T00:29:10;29.70;;;15.37;;
6163;SDS011;3114;48.362;10.994;2022-12-10T00:31:38;30.50;;;15.90;;
6163;SDS011;3114;48.362;10.994;2022-12-10T00:34:06;28.43;;;14.87;;
6163;SDS011;3114;48.362;10.994;2022-12-10T00:36:35;28.00;;;14.93;;
6163;SDS011;3114;48.362;10.994;2022-12-10T00:39:05;29.80;;;16.60;;
6163;SDS011;3114;48.362;10.994;2022-12-10T00:41:34;28.83;;;15.90;;
6163;SDS011;3114;48.362;10.994;2022-12-10T00:44:00;31.63;;;16.17;;
6163;SDS011;3114;48.362;10.994;2022-12-10T00:46:27;28.10;;;15.23;;
6163;SDS011;3114;48.362;10.994;2022-12-10T00:48:54;29.07;;;15.40;;
6163;SDS011;3114;48.362;10.994;2022-12-10T00:51:22;29.30;;;16.20;;
6163;SDS011;3114;48.362;10.994;2022-12-10T00:53:50;27.23;;;14.73;;
6163;SDS011;3114;48.362;10.994;2022-12-10T00:56:20;31.53;;;16.37;;
6163;SDS011;3114;48.362;10.994;2022-12-10T00:58:50;30.07;;;15.97;;
6163;SDS011;3114;48.362;10.994;2022-12-10T01:01:18;28.00;;;15.23;;
6163;SDS011;3114;48.362;10.994;2022-12-10T01:03:47;28.87;;;16.37;;
6163;SDS011;3114;48.362;10.994;2022-12-10T01:06:17;30.80;;;16.07;;
6163;SDS011;3114;48.362;10.994;2022-12-10T01:08:46;29.27;;;15.43;;
6163;SDS011;3114;48.362;10.994;2022-12-10T01:11:14;27.73;;;15.27;;
6163;SDS011;3114;48.362;10.994;2022-12-10T01:13:43;29.20;;;15.73;;
6163;SDS011;3114;48.362;10.994;2022-12-10T01:16:13;26.33;;;14.90;;
6163;SDS011;3114;48.362;10.994;2022-12-10T01:18:42;25.27;;;14.60;;
6163;SDS011;3114;48.362;10.994;2022-12-10T01:21:10;28.10;;;15.57;;
6163;SDS011;3114;48.362;10.994;2022-12-10T01:23:40;32.40;;;16.83;;
6163;SDS011;3114;48.362;10.994;2022-12-10T01:26:09;29.20;;;16.07;;
6163;SDS011;3114;48.362;10.994;2022-12-10T01:28:38;26.90;;;15.43;;
6163;SDS011;3114;48.362;10.994;2022-12-10T01:31:07;28.60;;;16.00;;
6163;SDS011;3114;48.362;10.994;2022-12-10T01:33:36;26.90;;;15.03;;
6163;SDS011;3114;48.362;10.994;2022-12-10T01:36:04;27.97;;;14.33;;
6163;SDS011;3114;48.362;10.994;2022-12-10T01:38:32;25.23;;;14.43;;
6163;SDS011;3114;48.362;10.994;2022-12-10T01:41:00;25.33;;;14.60;;
6163;SDS011;3114;48.362;10.994;2022-12-10T01:43:27;22.17;;;13.20;;
6163;SDS011;3114;48.362;10.994;2022-12-10T01:46:13;22.07;;;13.20;;
6163;SDS011;3114;48.362;10.994;2022-12-10T01:48:41;25.17;;;13.33;;
6163;SDS011;3114;48.362;10.994;2022-12-10T01:51:08;24.57;;;13.47;;
6163;SDS011;3114;48.362;10.994;2022-12-10T01:53:36;23.77;;;14.13;;
6163;SDS011;3114;48.362;10.994;2022-12-10T01:56:03;22.37;;;12.93;;
6163;SDS011;3114;48.362;10.994;2022-12-10T01:58:30;23.00;;;12.83;;
6163;SDS011;3114;48.362;10.994;2022-12-10T02:01:03;18.93;;;12.13;;
6163;SDS011;3114;48.362;10.994;2022-12-10T02:03:36;22.67;;;12.97;;
6163;SDS011;3114;48.362;10.994;2022-12-10T02:06:16;20.90;;;11.97;;
6163;SDS011;3114;48.362;10.994;2022-12-10T02:08:53;22.33;;;12.77;;
6163;SDS011;3114;48.362;10.994;2022-12-10T02:11:28;20.23;;;12.93;;
6163;SDS011;3114;48.362;10.994;2022-12-10T02:14:00;20.50;;;12.40;;
6163;SDS011;3114;48.362;10.994;2022-12-10T02:16:31;24.50;;;12.93;;
6163;SDS011;3114;48.362;10.994;2022-12-10T02:19:04;20.70;;;12.27;;
6163;SDS011;3114;48.362;10.994;2022-12-10T02:21:39;21.70;;;12.47;;
6163;SDS011;3114;48.362;10.994;2022-12-10T02:24:08;19.03;;;12.00;;
6163;SDS011;3114;48.362;10.994;2022-12-10T02:26:45;22.93;;;12.53;;
6163;SDS011;3114;48.362;10.994;2022-12-10T02:29:19;19.23;;;11.57;;
6163;SDS011;3114;48.362;10.994;2022-12-10T02:31:52;23.30;;;12.80;;
6163;SDS011;3114;48.362;10.994;2022-12-10T02:34:23;22.33;;;12.17;;
6163;SDS011;3114;48.362;10.994;2022-12-10T02:36:53;20.77;;;12.77;;
6163;SDS011;3114;48.362;10.994;2022-12-10T02:39:23;22.90;;;12.83;;
6163;SDS011;3114;48.362;10.994;2022-12-10T02:41:54;20.50;;;12.37;;
6163;SDS011;3114;48.362;10.994;2022-12-10T02:44:22;22.70;;;13.30;;
6163;SDS011;3114;48.362;10.994;2022-12-10T02:46:53;19.10;;;12.13;;
6163;SDS011;3114;48.362;10.994;2022-12-10T02:49:22;22.40;;;13.23;;
6163;SDS011;3114;48.362;10.994;2022-12-10T02:51:51;20.03;;;12.97;;
6163;SDS011;3114;48.362;10.994;2022-12-10T02:54:34;21.37;;;12.80;;
6163;SDS011;3114;48.362;10.994;2022-12-10T02:57:05;18.90;;;12.17;;
6163;SDS011;3114;48.362;10.994;2022-12-10T02:59:51;21.07;;;11.77;;
6163;SDS011;3114;48.362;10.994;2022-12-10T03:02:33;21.20;;;12.00;;
6163;SDS011;3114;48.362;10.994;2022-12-10T03:05:12;22.53;;;13.10;;
6163;SDS011;3114;48.362;10.994;2022-12-10T03:07:46;19.90;;;12.33;;
6163;SDS011;3114;48.362;10.994;2022-12-10T03:10:17;21.77;;;12.47;;
6163;SDS011;3114;48.362;10.994;2022-12-10T03:12:51;21.83;;;12.17;;
6163;SDS011;3114;48.362;10.994;2022-12-10T03:15:25;24.57;;;13.07;;
6163;SDS011;3114;48.362;10.994;2022-12-10T03:17:55;22.10;;;12.90;;
6163;SDS011;3114;48.362;10.994;2022-12-10T03:20:23;22.10;;;12.97;;
6163;SDS011;3114;48.362;10.994;2022-12-10T03:22:52;19.83;;;12.10;;
6163;SDS011;3114;48.362;10.994;2022-12-10T03:25:22;24.73;;;13.07;;
6163;SDS011;3114;48.362;10.994;2022-12-10T03:27:51;20.43;;;12.90;;
6163;SDS011;3114;48.362;10.994;2022-12-10T03:30:21;20.60;;;12.50;;
6163;SDS011;3114;48.362;10.994;2022-12-10T03:32:50;22.10;;;13.13;;
6163;SDS011;3114;48.362;10.994;2022-12-10T03:35:18;19.37;;;12.63;;
6163;SDS011;3114;48.362;10.994;2022-12-10T03:37:47;24.70;;;13.67;;
6163;SDS011;3114;48.362;10.994;2022-12-10T03:40:15;22.43;;;14.03;;
6163;SDS011;3114;48.362;10.994;2022-12-10T03:42:45;22.87;;;13.53;;
6163;SDS011;3114;48.362;10.994;2022-12-10T03:45:12;22.07;;;13.80;;
6163;SDS011;3114;48.362;10.994;2022-12-10T03:47:39;21.90;;;13.30;;
6163;SDS011;3114;48.362;10.994;2022-12-10T03:50:08;23.23;;;13.33;;
6163;SDS011;3114;48.362;10.994;2022-12-10T03:52:35;21.00;;;12.67;;
6163;SDS011;3114;48.362;10.994;2022-12-10T03:55:03;20.37;;;13.10;;
6163;SDS011;3114;48.362;10.994;2022-12-10T03:57:31;21.13;;;12.30;;
6163;SDS011;3114;48.362;10.994;2022-12-10T03:59:58;23.93;;;13.20;;
6163;SDS011;3114;48.362;10.994;2022-12-10T04:02:25;26.10;;;13.80;;
6163;SDS011;3114;48.362;10.994;2022-12-10T04:04:52;21.73;;;12.73;;
6163;SDS011;3114;48.362;10.994;2022-12-10T04:07:20;22.70;;;13.10;;
6163;SDS011;3114;48.362;10.994;2022-12-10T04:09:47;24.03;;;13.17;;
6163;SDS011;3114;48.362;10.994;2022-12-10T04:12:14;20.57;;;12.83;;
6163;SDS011;3114;48.362;10.994;2022-12-10T04:14:41;20.37;;;12.53;;
6163;SDS011;3114;48.362;10.994;2022-12-10T04:17:25;23.83;;;13.07;;
6163;SDS011;3114;48.362;10.994;2022-12-10T04:19:52;21.63;;;12.67;;
6163;SDS011;3114;48.362;10.994;2022-12-10T04:22:18;24.83;;;13.60;;
6163;SDS011;3114;48.362;10.994;2022-12-10T04:25:04;22.63;;;13.37;;
6163;SDS011;3114;48.362;10.994;2022-12-10T04:27:48;24.00;;;13.03;;
6163;SDS011;3114;48.362;10.994;2022-12-10T04:30:15;21.83;;;12.67;;
6163;SDS011;3114;48.362;10.994;2022-12-10T04:32:42;20.27;;;13.17;;
6163;SDS011;3114;48.362;10.994;2022-12-10T04:35:08;23.83;;;12.97;;
6163;SDS011;3114;48.362;10.994;2022-12-10T04:37:37;22.90;;;12.27;;
6163;SDS011;3114;48.362;10.994;2022-12-10T04:40:04;23.03;;;13.10;;
6163;SDS011;3114;48.362;10.994;2022-12-10T04:42:32;21.20;;;12.57;;
6163;SDS011;3114;48.362;10.994;2022-12-10T04:44:58;21.10;;;12.57;;
6163;SDS011;3114;48.362;10.994;2022-12-10T04:47:25;21.23;;;13.57;;
6163;SDS011;3114;48.362;10.994;2022-12-10T04:49:52;21.20;;;12.60;;
6163;SDS011;3114;48.362;10.994;2022-12-10T04:52:19;21.97;;;13.73;;
6163;SDS011;3114;48.362;10.994;2022-12-10T04:54:47;24.23;;;14.30;;
6163;SDS011;3114;48.362;10.994;2022-12-10T04:57:14;24.70;;;14.33;;
6163;SDS011;3114;48.362;10.994;2022-12-10T04:59:41;26.73;;;14.13;;
6163;SDS011;3114;48.362;10.994;2022-12-10T05:02:08;31.90;;;14.00;;
6163;SDS011;3114;48.362;10.994;2022-12-10T05:04:35;27.77;;;14.50;;
6163;SDS011;3114;48.362;10.994;2022-12-10T05:07:02;24.10;;;14.60;;
6163;SDS011;3114;48.362;10.994;2022-12-10T05:09:29;24.67;;;13.90;;
6163;SDS011;3114;48.362;10.994;2022-12-10T05:11:57;24.87;;;13.70;;
6163;SDS011;3114;48.362;10.994;2022-12-10T05:14:24;23.80;;;14.17;;
6163;SDS011;3114;48.362;10.994;2022-12-10T05:16:51;23.03;;;13.93;;
6163;SDS011;3114;48.362;10.994;2022-12-10T05:19:18;24.83;;;13.73;;
6163;SDS011;3114;48.362;10.994;2022-12-10T05:21:46;20.33;;;13.20;;
6163;SDS011;3114;48.362;10.994;2022-12-10T05:24:31;22.77;;;13.23;;
6163;SDS011;3114;48.362;10.994;2022-12-10T05:27:00;25.30;;;13.50;;
6163;SDS011;3114;48.362;10.994;2022-12-10T05:29:27;23.13;;;13.23;;
6163;SDS011;3114;48.362;10.994;2022-12-10T05:31:54;20.57;;;12.43;;
6163;SDS011;3114;48.362;10.994;2022-12-10T05:34:21;22.53;;;12.97;;
6163;SDS011;3114;48.362;10.994;2022-12-10T05:36:48;23.47;;;13.30;;
6163;SDS011;3114;48.362;10.994;2022-12-10T05:39:15;22.30;;;13.67;;
6163;SDS011;3114;48.362;10.994;2022-12-10T05:41:42;24.23;;;13.80;;
6163;SDS011;3114;48.362;10.994;2022-12-10T05:44:11;22.53;;;13.17;;
6163;SDS011;3114;48.362;10.994;2022-12-10T05:46:39;22.60;;;13.43;;
6163;SDS011;3114;48.362;10.994;2022-12-10T05:49:06;24.73;;;13.57;;
6163;SDS011;3114;48.362;10.994;2022-12-10T05:51:34;23.30;;;14.43;;
6163;SDS011;3114;48.362;10.994;2022-12-10T05:54:02;22.63;;;13.63;;
6163;SDS011;3114;48.362;10.994;2022-12-10T05:56:31;24.03;;;14.00;;
6163;SDS011;3114;48.362;10.994;2022-12-10T05:58:59;21.87;;;13.30;;
6163;SDS011;3114;48.362;10.994;2022-12-10T06:01:29;23.63;;;13.60;;
6163;SDS011;3114;48.362;10.994;2022-12-10T06:03:57;21.93;;;13.67;;
6163;SDS011;3114;48.362;10.994;2022-12-10T06:06:25;23.03;;;14.23;;
6163;SDS011;3114;48.362;10.994;2022-12-10T06:08:53;26.87;;;14.93;;
6163;SDS011;3114;48.362;10.994;2022-12-10T06:11:20;26.63;;;14.17;;
6163;SDS011;3114;48.362;10.994;2022-12-10T06:13:48;25.47;;;14.83;;
6163;SDS011;3114;48.362;10.994;2022-12-10T06:16:15;26.47;;;14.30;;
6163;SDS011;3114;48.362;10.994;2022-12-10T06:18:43;24.90;;;14.43;;
6163;SDS011;3114;48.362;10.994;2022-12-10T06:21:11;25.90;;;13.60;;
6163;SDS011;3114;48.362;10.994;2022-12-10T06:23:39;24.77;;;14.53;;
6163;SDS011;3114;48.362;10.994;2022-12-10T06:26:06;24.20;;;13.93;;
6163;SDS011;3114;48.362;10.994;2022-12-10T06:28:35;26.47;;;14.67;;
6163;SDS011;3114;48.362;10.994;2022-12-10T06:31:02;25.83;;;15.60;;
6163;SDS011;3114;48.362;10.994;2022-12-10T06:33:29;22.97;;;14.00;;
6163;SDS011;3114;48.362;10.994;2022-12-10T06:35:57;27.80;;;15.13;;
6163;SDS011;3114;48.362;10.994;2022-12-10T06:38:24;24.73;;;14.77;;
6163;SDS011;3114;48.362;10.994;2022-12-10T06:40:51;25.40;;;14.87;;
6163;SDS011;3114;48.362;10.994;2022-12-10T06:43:18;23.00;;;13.63;;
6163;SDS011;3114;48.362;10.994;2022-12-10T06:45:45;25.93;;;13.90;;
6163;SDS011;3114;48.362;10.994;2022-12-10T06:48:12;23.73;;;14.20;;
6163;SDS011;3114;48.362;10.994;2022-12-10T06:50:39;24.77;;;14.00;;
6163;SDS011;3114;48.362;10.994;2022-12-10T06:53:08;20.70;;;12.93;;
6163;SDS011;3114;48.362;10.994;2022-12-10T06:55:35;25.50;;;14.67;;
6163;SDS011;3114;48.362;10.994;2022-12-10T06:58:03;26.63;;;13.80;;
6163;SDS011;3114;48.362;10.994;2022-12-10T07:00:30;26.73;;;14.23;;
6163;SDS011;3114;48.362;10.994;2022-12-10T07:02:57;24.07;;;14.30;;
6163;SDS011;3114;48.362;10.994;2022-12-10T07:05:24;26.13;;;14.73;;
6163;SDS011;3114;48.362;10.994;2022-12-10T07:07:51;28.33;;;15.47;;
6163;SDS011;3114;48.362;10.994;2022-12-10T07:10:20;26.73;;;15.07;;
6163;SDS011;3114;48.362;10.994;2022-12-10T07:12:47;27.53;;;15.60;;
6163;SDS011;3114;48.362;10.994;2022-12-10T07:15:14;27.27;;;14.73;;
6163;SDS011;3114;48.362;10.994;2022-12-10T07:17:40;27.67;;;14.70;;
6163;SDS011;3114;48.362;10.994;2022-12-10T07:20:08;33.77;;;16.43;;
6163;SDS011;3114;48.362;10.994;2022-12-10T07:22:36;31.37;;;16.80;;
6163;SDS011;3114;48.362;10.994;2022-12-10T07:25:04;25.63;;;14.43;;
6163;SDS011;3114;48.362;10.994;2022-12-10T07:27:32;25.67;;;14.57;;
6163;SDS011;3114;48.362;10.994;2022-12-10T07:29:59;27.30;;;15.17;;
6163;SDS011;3114;48.362;10.994;2022-12-10T07:32:26;26.53;;;14.20;;
6163;SDS011;3114;48.362;10.994;2022-12-10T07:34:53;21.77;;;14.07;;
6163;SDS011;3114;48.362;10.994;2022-12-10T07:37:20;25.17;;;14.30;;
6163;SDS011;3114;48.362;10.994;2022-12-10T07:39:47;28.87;;;15.97;;
6163;SDS011;3114;48.362;10.994;2022-12-10T07:42:14;29.00;;;14.93;;
6163;SDS011;3114;48.362;10.994;2022-12-10T07:44:42;26.23;;;15.37;;
6163;SDS011;3114;48.362;10.994;2022-12-10T07:47:09;27.00;;;14.77;;
6163;SDS011;3114;48.362;10.994;2022-12-10T07:49:36;29.53;;;15.77;;
6163;SDS011;3114;48.362;10.994;2022-12-10T07:52:03;25.93;;;15.07;;
6163;SDS011;3114;48.362;10.994;2022-12-10T07:54:30;28.23;;;14.87;;
6163;SDS011;3114;48.362;10.994;2022-12-10T07:56:57;27.47;;;14.80;;
6163;SDS011;3114;48.362;10.994;2022-12-10T07:59:24;26.87;;;14.57;;
6163;SDS011;3114;48.362;10.994;2022-12-10T08:01:52;27.00;;;14.30;;
6163;SDS011;3114;48.362;10.994;2022-12-10T08:04:19;27.00;;;15.27;;
6163;SDS011;3114;48.362;10.994;2022-12-10T08:06:46;25.97;;;15.57;;
6163;SDS011;3114;48.362;10.994;2022-12-10T08:09:13;25.13;;;14.07;;
6163;SDS011;3114;48.362;10.994;2022-12-10T08:11:39;28.67;;;15.13;;
6163;SDS011;3114;48.362;10.994;2022-12-10T08:14:07;32.47;;;14.73;;
6163;SDS011;3114;48.362;10.994;2022-12-10T08:16:33;27.87;;;14.57;;
6163;SDS011;3114;48.362;10.994;2022-12-10T08:19:02;28.50;;;15.17;;
6163;SDS011;3114;48.362;10.994;2022-12-10T08:21:30;26.97;;;15.20;;
6163;SDS011;3114;48.362;10.994;2022-12-10T08:23:58;27.50;;;15.27;;
6163;SDS011;3114;48.362;10.994;2022-12-10T08:26:26;27.93;;;14.00;;
6163;SDS011;3114;48.362;10.994;2022-12-10T08:28:55;25.07;;;14.10;;
6163;SDS011;3114;48.362;10.994;2022-12-10T08:31:22;24.20;;;14.47;;
6163;SDS011;3114;48.362;10.994;2022-12-10T08:33:50;27.37;;;14.07;;
6163;SDS011;3114;48.362;10.994;2022-12-10T08:36:18;26.37;;;14.53;;
6163;SDS011;3114;48.362;10.994;2022-12-10T08:38:45;27.53;;;14.63;;
6163;SDS011;3114;48.362;10.994;2022-12-10T08:41:13;26.50;;;15.00;;
6163;SDS011;3114;48.362;10.994;2022-12-10T08:43:41;30.07;;;15.37;;
6163;SDS011;3114;48.362;10.994;2022-12-10T08:46:09;34.53;;;17.07;;
6163;SDS011;3114;48.362;10.994;2022-12-10T08:48:37;42.63;;;20.30;;
6163;SDS011;3114;48.362;10.994;2022-12-10T08:51:04;35.13;;;17.20;;
6163;SDS011;3114;48.362;10.994;2022-12-10T08:53:34;33.23;;;15.87;;
6163;SDS011;3114;48.362;10.994;2022-12-10T08:56:01;26.30;;;13.83;;
6163;SDS011;3114;48.362;10.994;2022-12-10T08:58:28;27.40;;;14.57;;
6163;SDS011;3114;48.362;10.994;2022-12-10T09:00:55;24.57;;;14.47;;
6163;SDS011;3114;48.362;10.994;2022-12-10T09:03:22;25.37;;;14.47;;
6163;SDS011;3114;48.362;10.994;2022-12-10T09:05:49;26.93;;;15.07;;
6163;SDS011;3114;48.362;10.994;2022-12-10T09:08:16;27.30;;;14.13;;
6163;SDS011;3114;48.362;10.994;2022-12-10T09:10:44;25.80;;;14.00;;
6163;SDS011;3114;48.362;10.994;2022-12-10T09:13:11;26.23;;;14.67;;
6163;SDS011;3114;48.362;10.994;2022-12-10T09:15:38;27.73;;;14.57;;
6163;SDS011;3114;48.362;10.994;2022-12-10T09:18:05;23.30;;;13.90;;
6163;SDS011;3114;48.362;10.994;2022-12-10T09:20:32;23.73;;;14.10;;
6163;SDS011;3114;48.362;10.994;2022-12-10T09:22:59;25.40;;;15.07;;
6163;SDS011;3114;48.362;10.994;2022-12-10T09:25:25;26.93;;;14.33;;
6163;SDS011;3114;48.362;10.994;2022-12-10T09:27:54;24.40;;;14.63;;
6163;SDS011;3114;48.362;10.994;2022-12-10T09:30:20;25.87;;;14.77;;
6163;SDS011;3114;48.362;10.994;2022-12-10T09:32:47;24.13;;;14.17;;
6163;SDS011;3114;48.362;10.994;2022-12-10T09:35:14;26.53;;;14.70;;
6163;SDS011;3114;48.362;10.994;2022-12-10T09:37:41;22.90;;;13.73;;
6163;SDS011;3114;48.362;10.994;2022-12-10T09:40:09;23.73;;;13.97;;
6163;SDS011;3114;48.362;10.994;2022-12-10T09:42:42;28.20;;;14.47;;
6163;SDS011;3114;48.362;10.994;2022-12-10T09:45:20;25.00;;;14.77;;
6163;SDS011;3114;48.362;10.994;2022-12-10T09:47:54;24.97;;;14.53;;
6163;SDS011;3114;48.362;10.994;2022-12-10T09:50:26;24.43;;;13.97;;
6163;SDS011;3114;48.362;10.994;2022-12-10T09:53:01;26.10;;;14.43;;
6163;SDS011;3114;48.362;10.994;2022-12-10T09:55:31;28.00;;;14.70;;
6163;SDS011;3114;48.362;10.994;2022-12-10T09:58:01;28.53;;;15.17;;
6163;SDS011;3114;48.362;10.994;2022-12-10T10:00:32;25.80;;;14.47;;
6163;SDS011;3114;48.362;10.994;2022-12-10T10:03:02;22.83;;;13.73;;
6163;SDS011;3114;48.362;10.994;2022-12-10T10:05:33;25.33;;;14.00;;
6163;SDS011;3114;48.362;10.994;2022-12-10T10:08:04;23.37;;;13.77;;
6163;SDS011;3114;48.362;10.994;2022-12-10T10:10:40;24.87;;;13.70;;
6163;SDS011;3114;48.362;10.994;2022-12-10T10:13:12;24.50;;;14.37;;
6163;SDS011;3114;48.362;10.994;2022-12-10T10:15:46;23.17;;;12.90;;
6163;SDS011;3114;48.362;10.994;2022-12-10T10:18:15;20.37;;;12.43;;
6163;SDS011;3114;48.362;10.994;2022-12-10T10:20:47;24.73;;;14.47;;
6163;SDS011;3114;48.362;10.994;2022-12-10T10:23:15;23.57;;;13.80;;
6163;SDS011;3114;48.362;10.994;2022-12-10T10:25:43;23.70;;;14.33;;
6163;SDS011;3114;48.362;10.994;2022-12-10T10:28:11;23.03;;;13.13;;
6163;SDS011;3114;48.362;10.994;2022-12-10T10:30:40;25.27;;;13.73;;
6163;SDS011;3114;48.362;10.994;2022-12-10T10:33:12;24.67;;;14.53;;
6163;SDS011;3114;48.362;10.994;2022-12-10T10:35:43;26.10;;;14.97;;
6163;SDS011;3114;48.362;10.994;2022-12-10T10:38:15;31.00;;;15.63;;
6163;SDS011;3114;48.362;10.994;2022-12-10T10:40:46;36.70;;;20.17;;
6163;SDS011;3114;48.362;10.994;2022-12-10T10:43:18;23.93;;;14.63;;
6163;SDS011;3114;48.362;10.994;2022-12-10T10:45:47;21.83;;;14.07;;
6163;SDS011;3114;48.362;10.994;2022-12-10T10:48:19;23.67;;;13.97;;
6163;SDS011;3114;48.362;10.994;2022-12-10T10:50:49;23.20;;;13.43;;
6163;SDS011;3114;48.362;10.994;2022-12-10T10:53:27;22.13;;;12.73;;
6163;SDS011;3114;48.362;10.994;2022-12-10T10:55:57;19.50;;;12.77;;
6163;SDS011;3114;48.362;10.994;2022-12-10T10:58:32;22.10;;;13.93;;
6163;SDS011;3114;48.362;10.994;2022-12-10T11:01:00;21.13;;;13.33;;
6163;SDS011;3114;48.362;10.994;2022-12-10T11:03:30;20.60;;;12.47;;
6163;SDS011;3114;48.362;10.994;2022-12-10T11:06:00;24.90;;;14.13;;
6163;SDS011;3114;48.362;10.994;2022-12-10T11:08:30;21.97;;;13.40;;
6163;SDS011;3114;48.362;10.994;2022-12-10T11:10:59;24.53;;;14.20;;
6163;SDS011;3114;48.362;10.994;2022-12-10T11:13:30;23.27;;;13.20;;
6163;SDS011;3114;48.362;10.994;2022-12-10T11:15:59;24.47;;;13.73;;
6163;SDS011;3114;48.362;10.994;2022-12-10T11:18:37;25.47;;;14.13;;
6163;SDS011;3114;48.362;10.994;2022-12-10T11:21:08;24.83;;;14.63;;
6163;SDS011;3114;48.362;10.994;2022-12-10T11:23:44;24.53;;;14.07;;
6163;SDS011;3114;48.362;10.994;2022-12-10T11:26:26;25.60;;;14.00;;
6163;SDS011;3114;48.362;10.994;2022-12-10T11:29:06;23.97;;;14.17;;
6163;SDS011;3114;48.362;10.994;2022-12-10T11:31:48;23.20;;;13.80;;
6163;SDS011;3114;48.362;10.994;2022-12-10T11:34:30;24.60;;;13.57;;
6163;SDS011;3114;48.362;10.994;2022-12-10T11:37:06;23.30;;;13.30;;
6163;SDS011;3114;48.362;10.994;2022-12-10T11:39:46;23.37;;;13.40;;
6163;SDS011;3114;48.362;10.994;2022-12-10T11:42:32;22.17;;;13.57;;
6163;SDS011;3114;48.362;10.994;2022-12-10T11:45:09;24.37;;;14.30;;
6163;SDS011;3114;48.362;10.994;2022-12-10T11:47:44;23.40;;;13.07;;
6163;SDS011;3114;48.362;10.994;2022-12-10T11:50:26;24.70;;;14.20;;
6163;SDS011;3114;48.362;10.994;2022-12-10T11:53:07;23.17;;;13.57;;
6163;SDS011;3114;48.362;10.994;2022-12-10T11:55:51;25.27;;;14.20;;
6163;SDS011;3114;48.362;10.994;2022-12-10T11:58:35;26.73;;;14.57;;
6163;SDS011;3114;48.362;10.994;2022-12-10T12:01:11;23.77;;;13.73;;
6163;SDS011;3114;48.362;10.994;2022-12-10T12:03:51;27.77;;;15.60;;
6163;SDS011;3114;48.362;10.994;2022-12-10T12:06:42;24.43;;;14.07;;
6163;SDS011;3114;48.362;10.994;2022-12-10T12:09:21;23.33;;;14.00;;
6163;SDS011;3114;48.362;10.994;2022-12-10T12:12:00;25.53;;;13.97;;
6163;SDS011;3114;48.362;10.994;2022-12-10T12:14:39;28.83;;;15.97;;
6163;SDS011;3114;48.362;10.994;2022-12-10T12:17:11;32.93;;;17.00;;
6163;SDS011;3114;48.362;10.994;2022-12-10T12:19:43;25.97;;;14.80;;
6163;SDS011;3114;48.362;10.994;2022-12-10T12:22:15;25.10;;;14.97;;
6163;SDS011;3114;48.362;10.994;2022-12-10T12:24:47;31.03;;;16.13;;
6163;SDS011;3114;48.362;10.994;2022-12-10T12:27:21;27.07;;;14.57;;
6163;SDS011;3114;48.362;10.994;2022-12-10T12:29:53;23.13;;;13.47;;
6163;SDS011;3114;48.362;10.994;2022-12-10T12:32:27;25.63;;;13.77;;
6163;SDS011;3114;48.362;10.994;2022-12-10T12:34:59;22.10;;;14.13;;
6163;SDS011;3114;48.362;10.994;2022-12-10T12:37:32;25.87;;;14.57;;
6163;SDS011;3114;48.362;10.994;2022-12-10T12:40:03;24.67;;;14.57;;
6163;SDS011;3114;48.362;10.994;2022-12-10T12:42:38;24.23;;;13.93;;
6163;SDS011;3114;48.362;10.994;2022-12-10T12:45:13;23.63;;;12.63;;
6163;SDS011;3114;48.362;10.994;2022-12-10T12:47:43;21.27;;;13.27;;
6163;SDS011;3114;48.362;10.994;2022-12-10T12:50:19;21.53;;;13.07;;
6163;SDS011;3114;48.362;10.994;2022-12-10T12:52:53;20.10;;;12.90;;
6163;SDS011;3114;48.362;10.994;2022-12-10T12:55:24;24.03;;;14.10;;
6163;SDS011;3114;48.362;10.994;2022-12-10T12:58:01;22.47;;;13.67;;
6163;SDS011;3114;48.362;10.994;2022-12-10T13:00:39;23.87;;;13.43;;
6163;SDS011;3114;48.362;10.994;2022-12-10T13:03:08;24.67;;;14.03;;
6163;SDS011;3114;48.362;10.994;2022-12-10T13:05:48;21.90;;;13.53;;
6163;SDS011;3114;48.362;10.994;2022-12-10T13:08:23;22.90;;;13.47;;
6163;SDS011;3114;48.362;10.994;2022-12-10T13:10:52;23.53;;;13.73;;
6163;SDS011;3114;48.362;10.994;2022-12-10T13:13:25;25.57;;;14.33;;
6163;SDS011;3114;48.362;10.994;2022-12-10T13:15:55;21.67;;;13.70;;
6163;SDS011;3114;48.362;10.994;2022-12-10T13:18:35;20.50;;;13.27;;
6163;SDS011;3114;48.362;10.994;2022-12-10T13:24:05;22.73;;;13.10;;
6163;SDS011;3114;48.362;10.994;2022-12-10T13:26:33;24.37;;;14.03;;
6163;SDS011;3114;48.362;10.994;2022-12-10T13:29:11;22.63;;;13.73;;
6163;SDS011;3114;48.362;10.994;2022-12-10T13:31:54;22.03;;;13.70;;
6163;SDS011;3114;48.362;10.994;2022-12-10T13:34:29;21.73;;;13.63;;
6163;SDS011;3114;48.362;10.994;2022-12-10T13:37:18;21.17;;;12.53;;
6163;SDS011;3114;48.362;10.994;2022-12-10T13:40:02;20.20;;;12.30;;
6163;SDS011;3114;48.362;10.994;2022-12-10T13:42:40;21.80;;;12.47;;
6163;SDS011;3114;48.362;10.994;2022-12-10T13:45:32;21.83;;;12.53;;
6163;SDS011;3114;48.362;10.994;2022-12-10T13:48:19;23.17;;;12.60;;
6163;SDS011;3114;48.362;10.994;2022-12-10T13:50:55;18.40;;;11.20;;
6163;SDS011;3114;48.362;10.994;2022-12-10T13:53:47;19.57;;;11.47;;
6163;SDS011;3114;48.362;10.994;2022-12-10T13:56:26;21.97;;;12.33;;
6163;SDS011;3114;48.362;10.994;2022-12-10T13:58:59;22.07;;;12.80;;
6163;SDS011;3114;48.362;10.994;2022-12-10T14:01:42;20.87;;;13.23;;
6163;SDS011;3114;48.362;10.994;2022-12-10T14:04:22;24.77;;;13.83;;
6163;SDS011;3114;48.362;10.994;2022-12-10T14:07:10;24.17;;;13.40;;
6163;SDS011;3114;48.362;10.994;2022-12-10T14:09:40;23.77;;;13.40;;
6163;SDS011;3114;48.362;10.994;2022-12-10T14:12:15;26.43;;;12.47;;
6163;SDS011;3114;48.362;10.994;2022-12-10T14:14:45;21.47;;;12.77;;
6163;SDS011;3114;48.362;10.994;2022-12-10T14:17:16;26.60;;;13.77;;
6163;SDS011;3114;48.362;10.994;2022-12-10T14:19:47;18.67;;;11.77;;
6163;SDS011;3114;48.362;10.994;2022-12-10T14:22:17;22.10;;;12.10;;
6163;SDS011;3114;48.362;10.994;2022-12-10T14:24:47;21.53;;;12.33;;
6163;SDS011;3114;48.362;10.994;2022-12-10T14:27:18;23.83;;;12.40;;
6163;SDS011;3114;48.362;10.994;2022-12-10T14:29:46;23.20;;;13.10;;
6163;SDS011;3114;48.362;10.994;2022-12-10T14:32:15;21.97;;;12.43;;
6163;SDS011;3114;48.362;10.994;2022-12-10T14:34:46;22.93;;;13.10;;
6163;SDS011;3114;48.362;10.994;2022-12-10T14:37:18;26.97;;;14.13;;
6163;SDS011;3114;48.362;10.994;2022-12-10T14:39:49;25.60;;;13.83;;
6163;SDS011;3114;48.362;10.994;2022-12-10T14:42:17;23.17;;;14.03;;
6163;SDS011;3114;48.362;10.994;2022-12-10T14:44:45;22.30;;;13.80;;
6163;SDS011;3114;48.362;10.994;2022-12-10T14:47:14;24.83;;;13.87;;
6163;SDS011;3114;48.362;10.994;2022-12-10T14:49:43;27.90;;;15.23;;
6163;SDS011;3114;48.362;10.994;2022-12-10T14:52:12;25.23;;;13.87;;
6163;SDS011;3114;48.362;10.994;2022-12-10T14:54:40;22.90;;;13.77;;
6163;SDS011;3114;48.362;10.994;2022-12-10T14:57:08;24.27;;;14.27;;